sensor_id;sensor_type;location;lat;lon;timestamp;temperature;humidity
70475;DHT22;57944;48.722;9.316;2023-03-15T00:01:30;1.30;99.90
70475;DHT22;57944;48.722;9.316;2023-03-15T00:03:59;1.30;99.90
70475;DHT22;57944;48.722;9.316;2023-03-15T00:06:31;1.20;99.90
70475;DHT22;57944;48.722;9.316;2023-03-15T00:09:02;1.10;99.90
70475;DHT22;57944;48.722;9.316;2023-03-15T00:11:35;1.20;99.90
70475;DHT22;57944;48.722;9.316;2023-03-15T00:14:05;1.20;99.90
70475;DHT22;57944;48.722;9.316;2023-03-15T00:16:35;1.20;99.90
70475;DHT22;57944;48.722;9.316;2023-03-15T00:19:05;1.20;99.90
70475;DHT22;57944;48.722;9.316;2023-03-15T00:21:35;1.20;99.90
70475;DHT22;57944;48.722;9.316;2023-03-15T00:24:06;1.30;99.90
70475;DHT22;57944;48.722;9.316;2023-03-15T00:26:38;1.40;99.90
70475;DHT22;57944;48.722;9.316;2023-03-15T00:29:08;1.30;99.90
70475;DHT22;57944;48.722;9.316;2023-03-15T00:31:38;1.40;99.90
70475;DHT22;57944;48.722;9.316;2023-03-15T00:34:08;1.40;99.90
70475;DHT22;57944;48.722;9.316;2023-03-15T00:36:39;1.40;99.90
70475;DHT22;57944;48.722;9.316;2023-03-15T00:39:10;1.40;99.90
70475;DHT22;57944;48.722;9.316;2023-03-15T00:41:43;1.30;99.90
70475;DHT22;57944;48.722;9.316;2023-03-15T00:44:14;1.30;99.90
70475;DHT22;57944;48.722;9.316;2023-03-15T00:46:43;1.20;99.90
70475;DHT22;57944;48.722;9.316;2023-03-15T00:49:13;1.10;99.90
70475;DHT22;57944;48.722;9.316;2023-03-15T00:51:43;1.10;99.90
70475;DHT22;57944;48.722;9.316;2023-03-15T00:54:13;1.10;99.90
70475;DHT22;57944;48.722;9.316;2023-03-15T00:56:46;1.10;99.90
70475;DHT22;57944;48.722;9.316;2023-03-15T00:59:16;1.10;99.90
70475;DHT22;57944;48.722;9.316;2023-03-15T01:01:48;1.00;99.90
70475;DHT22;57944;48.722;9.316;2023-03-15T01:04:21;1.00;99.90
70475;DHT22;57944;48.722;9.316;2023-03-15T01:06:50;1.00;99.90
70475;DHT22;57944;48.722;9.316;2023-03-15T01:09:20;1.10;99.90
70475;DHT22;57944;48.722;9.316;2023-03-15T01:11:53;1.10;99.90
70475;DHT22;57944;48.722;9.316;2023-03-15T01:14:23;1.20;99.90
70475;DHT22;57944;48.722;9.316;2023-03-15T01:16:53;1.20;99.90
70475;DHT22;57944;48.722;9.316;2023-03-15T01:19:22;1.20;99.90
70475;DHT22;57944;48.722;9.316;2023-03-15T01:21:52;1.20;99.90
70475;DHT22;57944;48.722;9.316;2023-03-15T01:24:22;1.20;99.90
70475;DHT22;57944;48.722;9.316;2023-03-15T01:26:54;1.20;99.90
70475;DHT22;57944;48.722;9.316;2023-03-15T01:29:24;1.20;99.90
70475;DHT22;57944;48.722;9.316;2023-03-15T01:31:54;1.20;99.90
70475;DHT22;57944;48.722;9.316;2023-03-15T01:34:24;1.10;99.90
70475;DHT22;57944;48.722;9.316;2023-03-15T01:36:54;1.20;99.90
70475;DHT22;57944;48.722;9.316;2023-03-15T01:39:30;1.10;99.90
70475;DHT22;57944;48.722;9.316;2023-03-15T01:42:03;1.00;99.90
70475;DHT22;57944;48.722;9.316;2023-03-15T01:44:49;0.80;99.90
70475;DHT22;57944;48.722;9.316;2023-03-15T01:47:22;0.60;99.90
70475;DHT22;57944;48.722;9.316;2023-03-15T01:49:57;0.50;99.90
70475;DHT22;57944;48.722;9.316;2023-03-15T01:52:34;0.40;99.90
70475;DHT22;57944;48.722;9.316;2023-03-15T01:55:10;0.40;99.90
70475;DHT22;57944;48.722;9.316;2023-03-15T01:57:57;0.40;99.90
70475;DHT22;57944;48.722;9.316;2023-03-15T02:00:34;0.40;99.90
70475;DHT22;57944;48.722;9.316;2023-03-15T02:03:12;0.30;99.90
70475;DHT22;57944;48.722;9.316;2023-03-15T02:05:49;0.20;99.90
70475;DHT22;57944;48.722;9.316;2023-03-15T02:08:36;0.30;99.90
70475;DHT22;57944;48.722;9.316;2023-03-15T02:11:10;0.20;99.90
70475;DHT22;57944;48.722;9.316;2023-03-15T02:13:44;0.20;99.90
70475;DHT22;57944;48.722;9.316;2023-03-15T02:16:17;0.30;99.90
70475;DHT22;57944;48.722;9.316;2023-03-15T02:18:55;0.30;99.90
70475;DHT22;57944;48.722;9.316;2023-03-15T02:21:28;0.40;99.90
70475;DHT22;57944;48.722;9.316;2023-03-15T02:24:08;0.50;99.90
70475;DHT22;57944;48.722;9.316;2023-03-15T02:26:49;0.40;99.90
70475;DHT22;57944;48.722;9.316;2023-03-15T02:29:26;0.40;99.90
70475;DHT22;57944;48.722;9.316;2023-03-15T02:31:58;0.30;99.90
70475;DHT22;57944;48.722;9.316;2023-03-15T02:34:30;0.10;99.90
70475;DHT22;57944;48.722;9.316;2023-03-15T02:37:01;0.00;99.90
70475;DHT22;57944;48.722;9.316;2023-03-15T02:39:31;-0.10;99.90
70475;DHT22;57944;48.722;9.316;2023-03-15T02:42:01;-0.20;99.90
70475;DHT22;57944;48.722;9.316;2023-03-15T02:44:34;-0.20;99.90
70475;DHT22;57944;48.722;9.316;2023-03-15T02:47:06;-0.30;99.90
70475;DHT22;57944;48.722;9.316;2023-03-15T02:49:42;-0.30;99.90
70475;DHT22;57944;48.722;9.316;2023-03-15T02:52:16;-0.20;99.90
70475;DHT22;57944;48.722;9.316;2023-03-15T02:54:46;-0.30;99.90
70475;DHT22;57944;48.722;9.316;2023-03-15T02:57:16;-0.20;99.90
70475;DHT22;57944;48.722;9.316;2023-03-15T02:59:50;-0.20;99.90
70475;DHT22;57944;48.722;9.316;2023-03-15T03:02:21;-0.40;99.90
70475;DHT22;57944;48.722;9.316;2023-03-15T03:04:51;-0.50;99.90
70475;DHT22;57944;48.722;9.316;2023-03-15T03:07:21;-0.60;99.90
70475;DHT22;57944;48.722;9.316;2023-03-15T03:09:56;-0.50;99.90
70475;DHT22;57944;48.722;9.316;2023-03-15T03:12:30;-0.50;99.90
70475;DHT22;57944;48.722;9.316;2023-03-15T03:15:03;-0.50;99.90
70475;DHT22;57944;48.722;9.316;2023-03-15T03:17:33;-0.60;99.90
70475;DHT22;57944;48.722;9.316;2023-03-15T03:20:05;-0.50;99.90
70475;DHT22;57944;48.722;9.316;2023-03-15T03:22:41;-0.60;99.90
70475;DHT22;57944;48.722;9.316;2023-03-15T03:25:12;-0.60;99.90
70475;DHT22;57944;48.722;9.316;2023-03-15T03:27:42;-0.60;99.90
70475;DHT22;57944;48.722;9.316;2023-03-15T03:30:15;-0.60;99.90
70475;DHT22;57944;48.722;9.316;2023-03-15T03:32:49;-0.60;99.90
70475;DHT22;57944;48.722;9.316;2023-03-15T03:35:20;-0.60;99.90
70475;DHT22;57944;48.722;9.316;2023-03-15T03:37:50;-0.60;99.90
70475;DHT22;57944;48.722;9.316;2023-03-15T03:40:26;-0.70;99.90
70475;DHT22;57944;48.722;9.316;2023-03-15T03:42:56;-0.70;99.90
70475;DHT22;57944;48.722;9.316;2023-03-15T03:45:29;-0.70;99.90
70475;DHT22;57944;48.722;9.316;2023-03-15T03:47:59;-0.60;99.90
70475;DHT22;57944;48.722;9.316;2023-03-15T03:50:31;-0.60;99.90
70475;DHT22;57944;48.722;9.316;2023-03-15T03:53:01;-0.60;99.90
70475;DHT22;57944;48.722;9.316;2023-03-15T03:55:33;-0.80;99.90
70475;DHT22;57944;48.722;9.316;2023-03-15T03:58:03;-0.60;99.90
70475;DHT22;57944;48.722;9.316;2023-03-15T04:00:55;-0.40;99.90
70475;DHT22;57944;48.722;9.316;2023-03-15T04:03:29;-0.50;99.90
70475;DHT22;57944;48.722;9.316;2023-03-15T04:06:09;-0.70;99.90
70475;DHT22;57944;48.722;9.316;2023-03-15T04:08:43;-0.70;99.90
70475;DHT22;57944;48.722;9.316;2023-03-15T04:11:18;-0.70;99.90
70475;DHT22;57944;48.722;9.316;2023-03-15T04:13:58;-0.80;99.90
70475;DHT22;57944;48.722;9.316;2023-03-15T04:16:31;-0.90;99.90
70475;DHT22;57944;48.722;9.316;2023-03-15T04:19:04;-0.90;99.90
70475;DHT22;57944;48.722;9.316;2023-03-15T04:21:35;-1.10;99.90
70475;DHT22;57944;48.722;9.316;2023-03-15T04:24:25;-1.00;99.90
70475;DHT22;57944;48.722;9.316;2023-03-15T04:27:06;-1.00;99.90
70475;DHT22;57944;48.722;9.316;2023-03-15T04:30:00;-0.90;99.90
70475;DHT22;57944;48.722;9.316;2023-03-15T04:32:52;-1.00;99.90
70475;DHT22;57944;48.722;9.316;2023-03-15T04:35:43;-1.00;99.90
70475;DHT22;57944;48.722;9.316;2023-03-15T04:38:32;-1.00;99.90
70475;DHT22;57944;48.722;9.316;2023-03-15T04:41:16;-0.90;99.90
70475;DHT22;57944;48.722;9.316;2023-03-15T04:44:02;-0.90;99.90
70475;DHT22;57944;48.722;9.316;2023-03-15T04:46:52;-0.80;99.90
70475;DHT22;57944;48.722;9.316;2023-03-15T04:49:41;-1.00;99.90
70475;DHT22;57944;48.722;9.316;2023-03-15T04:52:33;-0.80;99.90
70475;DHT22;57944;48.722;9.316;2023-03-15T04:55:03;-0.80;99.90
70475;DHT22;57944;48.722;9.316;2023-03-15T04:57:52;-0.70;99.90
70475;DHT22;57944;48.722;9.316;2023-03-15T05:00:35;-0.90;99.90
70475;DHT22;57944;48.722;9.316;2023-03-15T05:03:21;-1.10;99.90
70475;DHT22;57944;48.722;9.316;2023-03-15T05:05:59;-1.10;99.90
70475;DHT22;57944;48.722;9.316;2023-03-15T05:08:43;-1.10;99.90
70475;DHT22;57944;48.722;9.316;2023-03-15T05:11:23;-1.20;99.90
70475;DHT22;57944;48.722;9.316;2023-03-15T05:14:12;-1.10;99.90
70475;DHT22;57944;48.722;9.316;2023-03-15T05:17:02;-1.20;99.90
70475;DHT22;57944;48.722;9.316;2023-03-15T05:19:53;-1.20;99.90
70475;DHT22;57944;48.722;9.316;2023-03-15T05:22:43;-1.10;99.90
70475;DHT22;57944;48.722;9.316;2023-03-15T05:25:29;-0.90;99.90
70475;DHT22;57944;48.722;9.316;2023-03-15T05:28:18;-1.00;99.90
70475;DHT22;57944;48.722;9.316;2023-03-15T05:31:06;-1.00;99.90
70475;DHT22;57944;48.722;9.316;2023-03-15T05:33:54;-1.00;99.90
70475;DHT22;57944;48.722;9.316;2023-03-15T05:36:30;-1.10;99.90
70475;DHT22;57944;48.722;9.316;2023-03-15T05:39:22;-1.10;99.90
70475;DHT22;57944;48.722;9.316;2023-03-15T05:41:54;-1.10;99.90
70475;DHT22;57944;48.722;9.316;2023-03-15T05:44:59;-1.20;99.90
70475;DHT22;57944;48.722;9.316;2023-03-15T05:47:53;-1.20;99.90
70475;DHT22;57944;48.722;9.316;2023-03-15T05:50:52;-1.30;99.90
70475;DHT22;57944;48.722;9.316;2023-03-15T05:53:31;-1.30;99.90
70475;DHT22;57944;48.722;9.316;2023-03-15T05:56:33;-1.30;99.90
70475;DHT22;57944;48.722;9.316;2023-03-15T05:59:17;-1.30;99.90
70475;DHT22;57944;48.722;9.316;2023-03-15T06:02:07;-1.10;99.90
70475;DHT22;57944;48.722;9.316;2023-03-15T06:04:49;-1.00;99.90
70475;DHT22;57944;48.722;9.316;2023-03-15T06:07:23;-1.00;99.90
70475;DHT22;57944;48.722;9.316;2023-03-15T06:09:53;-1.00;99.90
70475;DHT22;57944;48.722;9.316;2023-03-15T06:12:26;-1.00;99.90
70475;DHT22;57944;48.722;9.316;2023-03-15T06:14:56;-0.90;99.90
70475;DHT22;57944;48.722;9.316;2023-03-15T06:17:27;-0.90;99.90
70475;DHT22;57944;48.722;9.316;2023-03-15T06:19:57;-0.70;99.90
70475;DHT22;57944;48.722;9.316;2023-03-15T06:22:27;-0.60;99.90
70475;DHT22;57944;48.722;9.316;2023-03-15T06:25:01;-0.50;99.90
70475;DHT22;57944;48.722;9.316;2023-03-15T06:27:33;-0.40;99.90
70475;DHT22;57944;48.722;9.316;2023-03-15T06:30:04;-0.20;99.90
70475;DHT22;57944;48.722;9.316;2023-03-15T06:32:34;0.10;99.90
70475;DHT22;57944;48.722;9.316;2023-03-15T06:35:05;1.00;99.90
70475;DHT22;57944;48.722;9.316;2023-03-15T06:37:35;2.00;99.90
70475;DHT22;57944;48.722;9.316;2023-03-15T06:40:06;2.80;99.90
70475;DHT22;57944;48.722;9.316;2023-03-15T06:42:40;3.40;99.90
70475;DHT22;57944;48.722;9.316;2023-03-15T06:45:12;4.10;99.90
70475;DHT22;57944;48.722;9.316;2023-03-15T06:47:42;4.90;99.90
70475;DHT22;57944;48.722;9.316;2023-03-15T06:50:14;5.80;99.90
70475;DHT22;57944;48.722;9.316;2023-03-15T06:52:44;6.60;99.90
70475;DHT22;57944;48.722;9.316;2023-03-15T06:55:14;7.50;99.90
70475;DHT22;57944;48.722;9.316;2023-03-15T06:57:47;7.70;99.90
70475;DHT22;57944;48.722;9.316;2023-03-15T07:00:17;7.80;99.90
70475;DHT22;57944;48.722;9.316;2023-03-15T07:02:48;8.30;99.90
70475;DHT22;57944;48.722;9.316;2023-03-15T07:05:18;8.50;99.90
70475;DHT22;57944;48.722;9.316;2023-03-15T07:07:47;8.80;99.90
70475;DHT22;57944;48.722;9.316;2023-03-15T07:10:18;9.20;99.90
70475;DHT22;57944;48.722;9.316;2023-03-15T07:12:50;9.60;99.90
70475;DHT22;57944;48.722;9.316;2023-03-15T07:15:20;10.70;99.90
70475;DHT22;57944;48.722;9.316;2023-03-15T07:17:50;11.10;99.90
70475;DHT22;57944;48.722;9.316;2023-03-15T07:20:20;10.40;99.90
70475;DHT22;57944;48.722;9.316;2023-03-15T07:22:50;10.50;99.90
70475;DHT22;57944;48.722;9.316;2023-03-15T07:25:19;11.10;99.90
70475;DHT22;57944;48.722;9.316;2023-03-15T07:27:54;12.00;99.90
